Time;durP1;ratioP1;P1;durP2;ratioP2;P2;SDS_P1;SDS_P2;PMS_P1;PMS_P2;Temp;Humidity;BMP_temperature;BMP_pressure;BME280_temperature;BME280_humidity;BME280_pressure;Samples;Min_cycle;Max_cycle;Signal;HPM_P1;HPM_P2
2022/04/04 00:00:00;;;;;;;7.10;6.40;;;;;;;;;;512111;29;1170;-81
2022/04/04 00:00:15;;;;;;;6.97;6.38;;;;;;;;;;511441;29;1219;-81
2022/04/04 00:00:31;;;;;;;7.17;6.57;;;;;;;;;;510264;29;1020;-81
2022/04/04 00:00:46;;;;;;;7.40;6.70;;;;;;;;;;508229;29;1246;-81
2022/04/04 00:01:02;;;;;;;7.30;6.60;;;;;;;;;;506914;29;1199;-81
2022/04/04 00:01:17;;;;;;;7.72;6.70;;;;;;;;;;508091;29;1018;-81
2022/04/04 00:01:33;;;;;;;7.50;6.70;;;;;;;;;;508479;29;1186;-80
2022/04/04 00:01:49;;;;;;;7.28;6.57;;;;;;;;;;510515;29;1300;-81
2022/04/04 00:02:04;;;;;;;7.55;6.55;;;;;;;;;;510611;29;1312;-81
2022/04/04 00:02:20;;;;;;;7.43;6.67;;;;;;;;;;509951;29;1815;-81
2022/04/04 00:02:35;;;;;;;7.10;6.40;;;;;;;;;;512102;29;1210;-81
2022/04/04 00:02:51;;;;;;;7.03;6.40;;;;;;;;;;511999;29;1063;-81
2022/04/04 00:03:07;;;;;;;7.30;6.60;;;;;;;;;;512677;28;1481;-81
2022/04/04 00:03:23;;;;;;;7.63;6.32;;;;;;;;;;514081;28;1071;-81
2022/04/04 00:03:38;;;;;;;6.90;6.20;;;;;;;;;;513871;28;1018;-80
2022/04/04 00:03:53;;;;;;;6.83;6.23;;;;;;;;;;514574;28;1064;-81
2022/04/04 00:04:09;;;;;;;7.00;6.30;;;;;;;;;;516711;28;826;-81
2022/04/04 00:04:24;;;;;;;7.07;6.37;;;;;;;;;;518595;28;849;-81
2022/04/04 00:04:40;;;;;;;6.95;6.25;;;;;;;;;;520168;28;1148;-81
2022/04/04 00:04:56;;;;;;;6.88;6.13;;;;;;;;;;520233;28;925;-81
2022/04/04 00:05:11;;;;;;;7.20;6.13;;;;;;;;;;520178;28;1155;-81
2022/04/04 00:05:27;;;;;;;6.68;6.03;;;;;;;;;;520186;28;833;-81
2022/04/04 00:05:43;;;;;;;6.63;6.03;;;;;;;;;;518198;28;1279;-81
2022/04/04 00:05:59;;;;;;;6.70;6.10;;;;;;;;;;518255;28;853;-81
2022/04/04 00:06:14;;;;;;;6.90;6.30;;;;;;;;;;516156;28;1308;-81
2022/04/04 00:06:33;;;;;;;6.90;6.30;;;;;;;;;;515995;28;1965;-81
2022/04/04 00:06:48;;;;;;;7.35;6.57;;;;;;;;;;513839;28;1244;-81
2022/04/04 00:07:03;;;;;;;8.30;6.70;;;;;;;;;;512192;29;1309;-81
2022/04/04 00:07:19;;;;;;;7.30;6.50;;;;;;;;;;512132;29;1352;-81
2022/04/04 00:07:34;;;;;;;7.03;6.30;;;;;;;;;;512978;28;1045;-81
2022/04/04 00:07:49;;;;;;;6.97;6.20;;;;;;;;;;514250;28;933;-81
2022/04/04 00:08:06;;;;;;;6.97;6.23;;;;;;;;;;514152;28;1219;-81
2022/04/04 00:08:21;;;;;;;7.20;6.30;;;;;;;;;;512006;29;1399;-80
2022/04/04 00:08:36;;;;;;;6.90;6.23;;;;;;;;;;512566;28;874;-81
2022/04/04 00:08:52;;;;;;;6.95;6.30;;;;;;;;;;514426;28;889;-81
2022/04/04 00:09:07;;;;;;;7.63;6.20;;;;;;;;;;516013;28;912;-81
2022/04/04 00:09:23;;;;;;;7.13;6.10;;;;;;;;;;516114;28;988;-81
2022/04/04 00:09:38;;;;;;;6.97;6.30;;;;;;;;;;513845;28;1074;-81
2022/04/04 00:09:54;;;;;;;7.32;6.60;;;;;;;;;;514496;28;807;-81
2022/04/04 00:10:09;;;;;;;7.25;6.53;;;;;;;;;;516122;28;1172;-81
2022/04/04 00:10:25;;;;;;;7.33;6.40;;;;;;;;;;516140;28;954;-81
2022/04/04 00:10:40;;;;;;;7.67;6.27;;;;;;;;;;516130;28;909;-81
2022/04/04 00:10:56;;;;;;;6.78;6.07;;;;;;;;;;516184;28;1242;-81
2022/04/04 00:11:12;;;;;;;6.90;6.20;;;;;;;;;;516305;28;813;-81
2022/04/04 00:11:27;;;;;;;7.45;6.75;;;;;;;;;;516528;28;1437;-81
2022/04/04 00:11:43;;;;;;;7.60;6.80;;;;;;;;;;518122;28;900;-80
2022/04/04 00:11:58;;;;;;;7.35;6.55;;;;;;;;;;514290;28;1616;-81
2022/04/04 00:12:14;;;;;;;7.07;6.37;;;;;;;;;;514008;28;893;-81
2022/04/04 00:12:29;;;;;;;6.88;6.18;;;;;;;;;;514040;28;806;-81
2022/04/04 00:12:44;;;;;;;9.47;6.50;;;;;;;;;;513959;28;1175;-81
2022/04/04 00:13:00;;;;;;;8.80;6.60;;;;;;;;;;512027;29;1211;-81
2022/04/04 00:13:16;;;;;;;7.10;6.45;;;;;;;;;;512024;29;1044;-81
2022/04/04 00:13:31;;;;;;;7.30;6.60;;;;;;;;;;512051;29;1261;-81
2022/04/04 00:13:46;;;;;;;7.25;6.55;;;;;;;;;;512287;28;962;-81
2022/04/04 00:14:03;;;;;;;7.03;6.40;;;;;;;;;;512077;29;1158;-81
2022/04/04 00:14:18;;;;;;;6.90;6.25;;;;;;;;;;512087;29;909;-81
2022/04/04 00:14:34;;;;;;;7.00;6.30;;;;;;;;;;510624;29;1304;-81
2022/04/04 00:14:50;;;;;;;7.00;6.30;;;;;;;;;;512079;29;1309;-81
2022/04/04 00:15:06;;;;;;;7.00;6.30;;;;;;;;;;512063;29;961;-81
2022/04/04 00:15:21;;;;;;;7.07;6.38;;;;;;;;;;511985;29;1247;-81
2022/04/04 00:15:37;;;;;;;7.00;6.30;;;;;;;;;;511883;29;1598;-80
2022/04/04 00:15:52;;;;;;;7.35;6.30;;;;;;;;;;512548;28;890;-81
2022/04/04 00:16:07;;;;;;;7.17;6.30;;;;;;;;;;514013;28;934;-81
2022/04/04 00:16:23;;;;;;;7.20;6.50;;;;;;;;;;512569;28;2188;-81
2022/04/04 00:16:38;;;;;;;7.30;6.53;;;;;;;;;;512056;29;1162;-81
2022/04/04 00:16:54;;;;;;;7.83;6.37;;;;;;;;;;512179;29;1167;-81
2022/04/04 00:17:10;;;;;;;7.10;6.40;;;;;;;;;;512326;28;914;-81
2022/04/04 00:17:25;;;;;;;7.30;6.60;;;;;;;;;;514427;28;1352;-81
2022/04/04 00:17:41;;;;;;;7.17;6.47;;;;;;;;;;516093;28;1320;-81
2022/04/04 00:17:56;;;;;;;7.15;6.45;;;;;;;;;;516212;28;1367;-81
2022/04/04 00:18:11;;;;;;;6.90;6.30;;;;;;;;;;516021;28;794;-81
2022/04/04 00:18:27;;;;;;;6.82;6.22;;;;;;;;;;516406;28;1360;-81
2022/04/04 00:18:42;;;;;;;6.80;6.20;;;;;;;;;;517880;28;1224;-81
2022/04/04 00:18:59;;;;;;;6.78;6.13;;;;;;;;;;518129;28;1064;-81
2022/04/04 00:19:17;;;;;;;6.88;6.18;;;;;;;;;;518003;28;889;-81
2022/04/04 00:19:32;;;;;;;6.75;6.15;;;;;;;;;;517811;28;1394;-81
2022/04/04 00:19:48;;;;;;;7.05;6.38;;;;;;;;;;518080;28;870;-81
2022/04/04 00:20:05;;;;;;;7.00;6.30;;;;;;;;;;515960;28;1148;-81
2022/04/04 00:20:22;;;;;;;6.93;6.22;;;;;;;;;;516020;28;937;-81
2022/04/04 00:20:39;;;;;;;7.03;6.32;;;;;;;;;;515207;28;1399;-81
2022/04/04 00:20:54;;;;;;;7.05;6.20;;;;;;;;;;516271;28;1244;-81
2022/04/04 00:21:10;;;;;;;7.38;6.13;;;;;;;;;;516032;28;937;-81
2022/04/04 00:21:25;;;;;;;6.70;6.10;;;;;;;;;;513947;28;1405;-81
2022/04/04 00:21:41;;;;;;;6.60;6.00;;;;;;;;;;513989;28;1323;-81
2022/04/04 00:21:57;;;;;;;6.78;6.13;;;;;;;;;;513871;28;1309;-81
2022/04/04 00:22:12;;;;;;;6.77;6.10;;;;;;;;;;514056;28;748;-80
2022/04/04 00:22:28;;;;;;;6.68;6.05;;;;;;;;;;514557;28;715;-80
2022/04/04 00:22:43;;;;;;;6.80;6.20;;;;;;;;;;516072;28;853;-80
2022/04/04 00:22:59;;;;;;;7.00;6.40;;;;;;;;;;516070;28;846;-80
2022/04/04 00:23:14;;;;;;;6.93;6.30;;;;;;;;;;513920;28;1202;-81
2022/04/04 00:23:30;;;;;;;7.03;6.32;;;;;;;;;;514338;28;870;-81
2022/04/04 00:23:45;;;;;;;7.20;6.50;;;;;;;;;;516242;28;1210;-81
2022/04/04 00:24:00;;;;;;;6.82;6.22;;;;;;;;;;516001;28;914;-81
2022/04/04 00:24:16;;;;;;;6.57;5.97;;;;;;;;;;514043;28;1170;-81
2022/04/04 00:24:32;;;;;;;6.70;6.10;;;;;;;;;;514108;28;929;-81
2022/04/04 00:24:47;;;;;;;6.90;6.25;;;;;;;;;;512054;29;1318;-81
2022/04/04 00:25:04;;;;;;;6.77;6.10;;;;;;;;;;512590;28;909;-80
2022/04/04 00:25:19;;;;;;;6.63;6.03;;;;;;;;;;513896;28;1200;-80
2022/04/04 00:25:35;;;;;;;6.60;6.00;;;;;;;;;;513883;28;1285;-80
2022/04/04 00:25:50;;;;;;;6.40;5.80;;;;;;;;;;513059;28;894;-80
2022/04/04 00:26:05;;;;;;;6.63;6.00;;;;;;;;;;512384;28;1181;-81
2022/04/04 00:26:21;;;;;;;7.07;6.37;;;;;;;;;;514645;28;1914;-81
2022/04/04 00:26:36;;;;;;;7.00;6.30;;;;;;;;;;516150;28;787;-81
2022/04/04 00:26:52;;;;;;;6.80;6.20;;;;;;;;;;516135;28;929;-81
2022/04/04 00:27:07;;;;;;;6.80;6.20;;;;;;;;;;516122;28;842;-81
2022/04/04 00:27:22;;;;;;;7.00;6.40;;;;;;;;;;516239;28;850;-81
2022/04/04 00:27:38;;;;;;;6.83;6.23;;;;;;;;;;515910;28;1275;-81
2022/04/04 00:27:53;;;;;;;6.75;6.05;;;;;;;;;;514289;28;1273;-81
2022/04/04 00:28:09;;;;;;;6.60;5.90;;;;;;;;;;514119;28;1318;-81
2022/04/04 00:28:24;;;;;;;6.80;6.10;;;;;;;;;;513898;28;1430;-81
2022/04/04 00:28:40;;;;;;;7.20;6.50;;;;;;;;;;514086;28;819;-81
2022/04/04 00:28:55;;;;;;;6.90;6.30;;;;;;;;;;514107;28;1175;-81
2022/04/04 00:29:10;;;;;;;6.50;5.90;;;;;;;;;;514270;28;1366;-81
2022/04/04 00:29:26;;;;;;;6.73;6.13;;;;;;;;;;514452;28;818;-81
2022/04/04 00:29:41;;;;;;;6.95;6.25;;;;;;;;;;516492;28;1030;-81
2022/04/04 00:29:57;;;;;;;6.73;6.03;;;;;;;;;;518231;28;826;-81
2022/04/04 00:30:12;;;;;;;7.05;6.40;;;;;;;;;;516053;28;1255;-81
2022/04/04 00:30:28;;;;;;;7.23;6.53;;;;;;;;;;514175;28;1159;-81
2022/04/04 00:30:44;;;;;;;7.10;6.40;;;;;;;;;;514134;28;1186;-81
2022/04/04 00:30:59;;;;;;;7.32;6.63;;;;;;;;;;514680;28;822;-81
2022/04/04 00:31:17;;;;;;;7.43;6.60;;;;;;;;;;516354;28;944;-81
2022/04/04 00:31:32;;;;;;;7.68;6.50;;;;;;;;;;516285;28;1397;-81
2022/04/04 00:31:47;;;;;;;7.03;6.33;;;;;;;;;;516433;28;1071;-81
2022/04/04 00:32:03;;;;;;;7.10;6.47;;;;;;;;;;516821;28;1127;-81
2022/04/04 00:32:18;;;;;;;7.40;6.70;;;;;;;;;;518064;28;1681;-81
2022/04/04 00:32:36;;;;;;;7.43;6.67;;;;;;;;;;517970;28;833;-81
2022/04/04 00:32:51;;;;;;;7.38;6.68;;;;;;;;;;518171;28;952;-81
2022/04/04 00:33:07;;;;;;;7.40;6.70;;;;;;;;;;518185;28;954;-81
2022/04/04 00:33:22;;;;;;;7.45;6.75;;;;;;;;;;515789;28;1176;-81
2022/04/04 00:33:37;;;;;;;7.40;6.70;;;;;;;;;;514013;28;1444;-80
2022/04/04 00:33:53;;;;;;;7.38;6.68;;;;;;;;;;514009;28;1161;-81
2022/04/04 00:34:08;;;;;;;7.30;6.60;;;;;;;;;;512137;29;1165;-81
2022/04/04 00:34:24;;;;;;;7.03;6.43;;;;;;;;;;512092;29;1044;-81
2022/04/04 00:34:39;;;;;;;7.03;6.40;;;;;;;;;;513988;28;1265;-81
2022/04/04 00:34:55;;;;;;;7.10;6.47;;;;;;;;;;513967;28;1259;-81
2022/04/04 00:35:10;;;;;;;6.85;6.25;;;;;;;;;;513990;28;1395;-81
2022/04/04 00:35:26;;;;;;;6.88;6.28;;;;;;;;;;512030;29;1284;-81
2022/04/04 00:35:41;;;;;;;6.83;6.30;;;;;;;;;;514245;28;1385;-81
2022/04/04 00:35:57;;;;;;;6.82;6.22;;;;;;;;;;514052;28;979;-81
2022/04/04 00:36:13;;;;;;;7.20;6.50;;;;;;;;;;512343;29;1055;-81
2022/04/04 00:36:28;;;;;;;7.20;6.50;;;;;;;;;;514036;28;1276;-81
2022/04/04 00:36:43;;;;;;;7.38;6.68;;;;;;;;;;514166;28;1330;-81
2022/04/04 00:36:59;;;;;;;7.33;6.63;;;;;;;;;;514733;28;802;-81
2022/04/04 00:37:14;;;;;;;7.10;6.40;;;;;;;;;;514400;28;1246;-81
2022/04/04 00:37:30;;;;;;;7.28;6.55;;;;;;;;;;516073;28;894;-81
2022/04/04 00:37:45;;;;;;;7.30;6.60;;;;;;;;;;516067;28;886;-81
2022/04/04 00:38:03;;;;;;;7.72;6.60;;;;;;;;;;516200;28;1340;-81
2022/04/04 00:38:18;;;;;;;7.78;6.65;;;;;;;;;;516661;28;1309;-81
2022/04/04 00:38:34;;;;;;;7.35;6.65;;;;;;;;;;517522;28;904;-81
2022/04/04 00:38:49;;;;;;;7.33;6.63;;;;;;;;;;516047;28;1036;-81
2022/04/04 00:39:05;;;;;;;7.25;6.55;;;;;;;;;;514834;28;1181;-81
2022/04/04 00:39:20;;;;;;;7.28;6.57;;;;;;;;;;514015;28;1244;-80
2022/04/04 00:39:36;;;;;;;7.27;6.57;;;;;;;;;;512034;29;1491;-81
2022/04/04 00:39:51;;;;;;;7.28;6.57;;;;;;;;;;512732;28;764;-81
2022/04/04 00:40:08;;;;;;;7.10;6.40;;;;;;;;;;511953;29;1415;-81
2022/04/04 00:40:24;;;;;;;7.10;6.40;;;;;;;;;;509783;29;1264;-81
2022/04/04 00:40:40;;;;;;;7.00;6.30;;;;;;;;;;510067;29;1185;-81
2022/04/04 00:40:55;;;;;;;6.88;6.18;;;;;;;;;;510103;29;1474;-81
2022/04/04 00:41:13;;;;;;;6.77;6.13;;;;;;;;;;510739;29;1200;-81
2022/04/04 00:41:29;;;;;;;6.90;6.30;;;;;;;;;;512900;28;1458;-80
2022/04/04 00:41:44;;;;;;;7.03;6.32;;;;;;;;;;511958;29;1185;-80
2022/04/04 00:41:59;;;;;;;7.00;6.30;;;;;;;;;;512991;28;1056;-81
2022/04/04 00:42:15;;;;;;;7.37;6.67;;;;;;;;;;514908;28;1162;-81
2022/04/04 00:42:31;;;;;;;7.95;6.70;;;;;;;;;;516005;28;882;-81
2022/04/04 00:42:47;;;;;;;7.00;6.30;;;;;;;;;;516058;28;1021;-81
2022/04/04 00:43:02;;;;;;;7.00;6.40;;;;;;;;;;515887;28;1554;-81
2022/04/04 00:43:18;;;;;;;6.63;6.03;;;;;;;;;;516375;28;918;-81
2022/04/04 00:43:33;;;;;;;6.57;5.97;;;;;;;;;;516554;28;849;-81
2022/04/04 00:43:52;;;;;;;6.90;6.30;;;;;;;;;;516042;28;1297;-81
2022/04/04 00:44:07;;;;;;;6.80;6.20;;;;;;;;;;516013;28;850;-81
2022/04/04 00:44:25;;;;;;;6.80;6.20;;;;;;;;;;516006;28;890;-81
2022/04/04 00:44:40;;;;;;;6.78;6.18;;;;;;;;;;516029;28;819;-81
2022/04/04 00:44:56;;;;;;;6.90;6.30;;;;;;;;;;516177;28;1227;-81
2022/04/04 00:45:12;;;;;;;7.30;6.70;;;;;;;;;;515882;28;1221;-81
2022/04/04 00:45:27;;;;;;;7.25;6.55;;;;;;;;;;512966;28;1213;-81
2022/04/04 00:45:44;;;;;;;6.87;6.17;;;;;;;;;;512122;29;1146;-81
2022/04/04 00:46:00;;;;;;;7.03;6.32;;;;;;;;;;512088;29;1331;-81
2022/04/04 00:46:15;;;;;;;7.30;6.60;;;;;;;;;;512034;29;961;-81
2022/04/04 00:46:31;;;;;;;7.20;6.50;;;;;;;;;;509904;29;1924;-81
2022/04/04 00:46:47;;;;;;;7.10;6.50;;;;;;;;;;511990;29;1170;-81
2022/04/04 00:47:03;;;;;;;6.80;6.20;;;;;;;;;;512054;29;1021;-81
2022/04/04 00:47:18;;;;;;;7.03;6.32;;;;;;;;;;513581;28;1174;-81
2022/04/04 00:47:34;;;;;;;7.20;6.50;;;;;;;;;;516116;28;1267;-81
2022/04/04 00:47:50;;;;;;;7.40;6.32;;;;;;;;;;515244;28;1570;-81
2022/04/04 00:48:05;;;;;;;7.93;6.20;;;;;;;;;;514141;28;909;-81
2022/04/04 00:48:21;;;;;;;7.03;6.38;;;;;;;;;;513916;28;1367;-81
2022/04/04 00:48:37;;;;;;;7.37;6.30;;;;;;;;;;512718;28;1346;-81
2022/04/04 00:48:52;;;;;;;8.27;6.30;;;;;;;;;;514078;28;1321;-81
2022/04/04 00:49:08;;;;;;;7.22;6.45;;;;;;;;;;514261;28;1067;-81
2022/04/04 00:49:24;;;;;;;7.10;6.40;;;;;;;;;;514166;28;889;-81
2022/04/04 00:49:40;;;;;;;7.20;6.50;;;;;;;;;;513998;28;826;-80
2022/04/04 00:49:56;;;;;;;7.25;6.55;;;;;;;;;;512768;28;1216;-81
2022/04/04 00:50:12;;;;;;;7.05;6.43;;;;;;;;;;512078;29;1338;-81
2022/04/04 00:50:27;;;;;;;6.90;6.20;;;;;;;;;;512063;29;925;-81
2022/04/04 00:50:43;;;;;;;6.63;6.00;;;;;;;;;;512689;28;826;-80
2022/04/04 00:50:58;;;;;;;6.87;6.23;;;;;;;;;;514161;28;810;-81
2022/04/04 00:51:15;;;;;;;7.40;6.70;;;;;;;;;;514346;28;881;-81
2022/04/04 00:51:30;;;;;;;7.13;6.43;;;;;;;;;;512175;29;1483;-81
2022/04/04 00:51:46;;;;;;;6.97;6.28;;;;;;;;;;512720;28;889;-81
2022/04/04 00:52:01;;;;;;;7.13;6.43;;;;;;;;;;514120;28;1271;-81
2022/04/04 00:52:17;;;;;;;7.13;6.43;;;;;;;;;;513906;28;1173;-81
2022/04/04 00:52:33;;;;;;;6.82;6.20;;;;;;;;;;514042;28;1134;-81
2022/04/04 00:52:49;;;;;;;7.07;6.37;;;;;;;;;;512218;28;1524;-81
2022/04/04 00:53:08;;;;;;;7.18;6.47;;;;;;;;;;514008;28;1504;-81
2022/04/04 00:53:26;;;;;;;7.15;6.45;;;;;;;;;;515146;28;885;-81
2022/04/04 00:53:41;;;;;;;7.10;6.40;;;;;;;;;;514002;28;1528;-81
2022/04/04 00:53:57;;;;;;;6.90;6.28;;;;;;;;;;514242;28;825;-81
2022/04/04 00:54:13;;;;;;;7.30;6.60;;;;;;;;;;515466;28;941;-81
2022/04/04 00:54:28;;;;;;;7.40;6.70;;;;;;;;;;514144;28;1377;-81
2022/04/04 00:54:45;;;;;;;6.95;6.35;;;;;;;;;;514110;28;972;-81
2022/04/04 00:55:01;;;;;;;7.00;6.40;;;;;;;;;;515606;28;885;-81
2022/04/04 00:55:17;;;;;;;7.00;6.38;;;;;;;;;;516214;28;744;-81
2022/04/04 00:55:32;;;;;;;6.97;6.30;;;;;;;;;;516729;28;1094;-81
2022/04/04 00:55:48;;;;;;;6.80;6.20;;;;;;;;;;518206;28;920;-81
2022/04/04 00:56:04;;;;;;;7.15;6.45;;;;;;;;;;518175;28;1063;-81
2022/04/04 00:56:19;;;;;;;7.27;6.57;;;;;;;;;;518780;28;829;-81
2022/04/04 00:56:36;;;;;;;7.10;6.40;;;;;;;;;;517205;28;1527;-81
2022/04/04 00:56:52;;;;;;;7.07;6.38;;;;;;;;;;516264;28;1040;-81
2022/04/04 00:57:08;;;;;;;6.90;6.20;;;;;;;;;;516302;28;1112;-81
2022/04/04 00:57:24;;;;;;;6.80;6.20;;;;;;;;;;516107;28;1427;-81
2022/04/04 00:57:39;;;;;;;6.70;6.10;;;;;;;;;;516162;28;1089;-81
2022/04/04 00:57:55;;;;;;;6.73;6.13;;;;;;;;;;515883;28;884;-81
2022/04/04 00:58:13;;;;;;;7.03;6.35;;;;;;;;;;513632;28;1300;-81
2022/04/04 00:58:30;;;;;;;6.85;6.15;;;;;;;;;;513878;28;867;-81
2022/04/04 00:58:45;;;;;;;6.65;6.05;;;;;;;;;;513793;28;882;-81
2022/04/04 00:59:01;;;;;;;6.90;6.30;;;;;;;;;;514167;28;905;-81
2022/04/04 00:59:17;;;;;;;6.88;6.28;;;;;;;;;;513058;28;1368;-81
2022/04/04 00:59:34;;;;;;;7.18;6.47;;;;;;;;;;514204;28;979;-81
2022/04/04 00:59:50;;;;;;;7.03;6.32;;;;;;;;;;512121;29;1383;-81
2022/04/04 01:00:07;;;;;;;6.82;6.20;;;;;;;;;;513277;28;1083;-81
2022/04/04 01:00:24;;;;;;;7.07;6.38;;;;;;;;;;514116;28;1197;-81
2022/04/04 01:00:41;;;;;;;7.03;6.43;;;;;;;;;;514030;28;925;-81
2022/04/04 01:00:58;;;;;;;7.00;6.30;;;;;;;;;;514194;28;925;-81
2022/04/04 01:01:13;;;;;;;6.80;6.10;;;;;;;;;;514148;28;877;-81
2022/04/04 01:01:29;;;;;;;6.75;6.15;;;;;;;;;;511998;29;1545;-81
2022/04/04 01:01:44;;;;;;;6.80;6.10;;;;;;;;;;513546;28;1072;-81
2022/04/04 01:02:00;;;;;;;6.93;6.22;;;;;;;;;;513280;28;1486;-81
2022/04/04 01:02:16;;;;;;;6.80;6.20;;;;;;;;;;514196;28;811;-81
2022/04/04 01:02:31;;;;;;;6.47;5.88;;;;;;;;;;514154;28;909;-81
2022/04/04 01:02:46;;;;;;;6.57;5.97;;;;;;;;;;512101;29;1441;-81
2022/04/04 01:03:02;;;;;;;7.10;6.23;;;;;;;;;;513594;28;1547;-81
2022/04/04 01:03:17;;;;;;;7.30;6.33;;;;;;;;;;514368;28;913;-80
2022/04/04 01:03:33;;;;;;;7.95;6.65;;;;;;;;;;515932;28;956;-81
2022/04/04 01:03:50;;;;;;;8.00;6.93;;;;;;;;;;514255;28;1344;-81
2022/04/04 01:04:08;;;;;;;7.53;6.72;;;;;;;;;;516196;28;934;-81
2022/04/04 01:04:23;;;;;;;7.10;6.40;;;;;;;;;;513891;28;1765;-81
2022/04/04 01:04:39;;;;;;;7.22;6.53;;;;;;;;;;514688;28;1201;-81
2022/04/04 01:04:54;;;;;;;7.53;6.82;;;;;;;;;;516059;28;893;-81
2022/04/04 01:05:10;;;;;;;7.57;6.87;;;;;;;;;;516109;28;905;-81
2022/04/04 01:05:25;;;;;;;7.10;6.40;;;;;;;;;;515986;28;880;-81
2022/04/04 01:05:44;;;;;;;6.78;6.18;;;;;;;;;;516132;28;971;-81
2022/04/04 01:05:59;;;;;;;7.15;6.45;;;;;;;;;;514117;28;1413;-81
2022/04/04 01:06:15;;;;;;;7.00;6.30;;;;;;;;;;512862;28;1302;-81
2022/04/04 01:06:30;;;;;;;6.70;6.03;;;;;;;;;;512531;28;1910;-81
2022/04/04 01:06:46;;;;;;;6.65;6.00;;;;;;;;;;514169;28;1032;-81
2022/04/04 01:07:03;;;;;;;6.63;6.03;;;;;;;;;;514079;28;930;-81
2022/04/04 01:07:19;;;;;;;6.85;6.10;;;;;;;;;;514140;28;949;-81
2022/04/04 01:07:38;;;;;;;7.33;6.20;;;;;;;;;;514234;28;918;-81
2022/04/04 01:07:53;;;;;;;7.30;6.60;;;;;;;;;;513198;28;938;-81
2022/04/04 01:08:11;;;;;;;7.50;6.80;;;;;;;;;;513091;28;1328;-81
2022/04/04 01:08:26;;;;;;;7.57;6.88;;;;;;;;;;515236;28;1412;-80
2022/04/04 01:08:42;;;;;;;7.60;6.90;;;;;;;;;;515915;28;1255;-81
2022/04/04 01:08:57;;;;;;;7.70;6.90;;;;;;;;;;516097;28;862;-81
2022/04/04 01:09:14;;;;;;;8.17;7.10;;;;;;;;;;516104;28;854;-81
2022/04/04 01:09:32;;;;;;;7.95;7.15;;;;;;;;;;515956;28;1363;-81
2022/04/04 01:09:48;;;;;;;7.53;6.72;;;;;;;;;;516100;28;872;-81
2022/04/04 01:10:06;;;;;;;7.22;6.53;;;;;;;;;;516213;28;829;-81
2022/04/04 01:10:21;;;;;;;6.82;6.22;;;;;;;;;;514775;28;1245;-81
2022/04/04 01:10:38;;;;;;;6.80;6.20;;;;;;;;;;515861;28;842;-81
2022/04/04 01:10:53;;;;;;;7.22;6.53;;;;;;;;;;517321;28;1016;-81
2022/04/04 01:11:09;;;;;;;7.10;6.40;;;;;;;;;;515784;28;1501;-81
2022/04/04 01:11:24;;;;;;;6.80;6.20;;;;;;;;;;513734;28;1188;-80
2022/04/04 01:12:02;;;;;;;7.03;6.30;;;;;;;;;;513976;28;909;-81
2022/04/04 01:12:17;;;;;;;7.07;6.38;;;;;;;;;;515345;28;882;-80
2022/04/04 01:12:32;;;;;;;7.13;6.43;;;;;;;;;;515785;28;1312;-81
2022/04/04 01:12:53;;;;;;;7.17;6.53;;;;;;;;;;515819;28;1275;-81
2022/04/04 01:13:10;;;;;;;7.13;6.45;;;;;;;;;;517662;28;787;-81
2022/04/04 01:13:25;;;;;;;7.35;6.65;;;;;;;;;;517950;28;1023;-81
2022/04/04 01:13:46;;;;;;;7.50;6.70;;;;;;;;;;517964;28;890;-80
2022/04/04 01:14:01;;;;;;;7.25;6.50;;;;;;;;;;518055;28;945;-80
2022/04/04 01:14:16;;;;;;;7.28;6.57;;;;;;;;;;515871;28;1173;-81
2022/04/04 01:14:32;;;;;;;7.30;6.60;;;;;;;;;;515854;28;1151;-81
2022/04/04 01:14:48;;;;;;;7.78;6.30;;;;;;;;;;513839;28;1269;-81
2022/04/04 01:15:04;;;;;;;7.95;6.10;;;;;;;;;;511888;28;1319;-81
2022/04/04 01:15:22;;;;;;;6.85;6.15;;;;;;;;;;511923;29;870;-81
2022/04/04 01:15:38;;;;;;;7.10;6.40;;;;;;;;;;509984;29;1276;-81
2022/04/04 01:15:53;;;;;;;7.30;6.60;;;;;;;;;;510222;29;922;-81
2022/04/04 01:16:09;;;;;;;7.67;6.90;;;;;;;;;;510946;29;1025;-81
2022/04/04 01:16:24;;;;;;;7.68;6.88;;;;;;;;;;512839;28;590;-81
2022/04/04 01:16:39;;;;;;;7.30;6.60;;;;;;;;;;515877;28;1106;-81
2022/04/04 01:16:55;;;;;;;7.30;6.60;;;;;;;;;;513936;28;1408;-80
2022/04/04 01:17:11;;;;;;;7.10;6.40;;;;;;;;;;511898;29;1218;-80
2022/04/04 01:17:27;;;;;;;6.95;6.35;;;;;;;;;;512573;28;814;-81
2022/04/04 01:17:42;;;;;;;8.35;6.80;;;;;;;;;;515996;28;1376;-81
2022/04/04 01:17:58;;;;;;;7.87;6.73;;;;;;;;;;516099;28;1196;-81
2022/04/04 01:18:13;;;;;;;7.22;6.53;;;;;;;;;;515989;28;1402;-81
2022/04/04 01:18:29;;;;;;;7.53;6.70;;;;;;;;;;515991;28;882;-81
2022/04/04 01:18:45;;;;;;;7.30;6.60;;;;;;;;;;515898;28;1543;-81
2022/04/04 01:19:00;;;;;;;7.28;6.57;;;;;;;;;;516473;28;1184;-81
2022/04/04 01:19:15;;;;;;;7.53;6.73;;;;;;;;;;516022;28;1242;-81
2022/04/04 01:19:31;;;;;;;7.75;6.97;;;;;;;;;;516036;28;834;-81
2022/04/04 01:19:47;;;;;;;7.60;6.87;;;;;;;;;;516130;28;881;-81
2022/04/04 01:20:05;;;;;;;7.18;6.47;;;;;;;;;;513974;28;1189;-81
2022/04/04 01:20:20;;;;;;;7.47;6.78;;;;;;;;;;513657;28;906;-81
2022/04/04 01:20:36;;;;;;;7.28;6.60;;;;;;;;;;513816;28;1060;-81
2022/04/04 01:20:52;;;;;;;6.90;6.30;;;;;;;;;;512593;28;1369;-81
2022/04/04 01:21:08;;;;;;;7.03;6.40;;;;;;;;;;512675;28;1149;-81
2022/04/04 01:21:24;;;;;;;6.90;6.30;;;;;;;;;;513842;28;1198;-81
2022/04/04 01:21:39;;;;;;;6.87;6.27;;;;;;;;;;511785;29;1459;-81
2022/04/04 01:21:55;;;;;;;7.10;6.50;;;;;;;;;;510853;29;1562;-81
2022/04/04 01:22:13;;;;;;;7.23;6.60;;;;;;;;;;512092;29;810;-81
2022/04/04 01:22:28;;;;;;;7.50;6.68;;;;;;;;;;510169;29;1316;-80
2022/04/04 01:22:50;;;;;;;7.47;6.70;;;;;;;;;;512683;28;827;-80
2022/04/04 01:23:06;;;;;;;7.40;6.70;;;;;;;;;;513863;28;908;-80
2022/04/04 01:23:23;;;;;;;7.55;6.85;;;;;;;;;;515234;28;1161;-81
2022/04/04 01:23:41;;;;;;;7.22;6.60;;;;;;;;;;515686;28;1329;-80
2022/04/04 01:23:58;;;;;;;7.40;6.80;;;;;;;;;;515972;28;901;-80
2022/04/04 01:24:21;;;;;;;7.65;6.95;;;;;;;;;;515722;28;823;-81
2022/04/04 01:24:38;;;;;;;7.63;6.80;;;;;;;;;;515912;28;889;-81
2022/04/04 01:24:53;;;;;;;7.50;6.78;;;;;;;;;;513850;28;1370;-81
2022/04/04 01:25:09;;;;;;;7.37;6.70;;;;;;;;;;513838;28;803;-81
2022/04/04 01:25:29;;;;;;;7.13;6.50;;;;;;;;;;513774;28;1222;-80
2022/04/04 01:25:45;;;;;;;7.40;6.70;;;;;;;;;;513704;28;1371;-80
2022/04/04 01:26:00;;;;;;;7.77;7.07;;;;;;;;;;514115;28;802;-81
2022/04/04 01:26:18;;;;;;;7.43;6.72;;;;;;;;;;514160;28;926;-80
2022/04/04 01:26:34;;;;;;;7.35;6.60;;;;;;;;;;515386;28;1915;-81
2022/04/04 01:26:51;;;;;;;7.55;6.75;;;;;;;;;;515274;28;1281;-81
2022/04/04 01:27:08;;;;;;;7.25;6.60;;;;;;;;;;516094;28;1778;-81
2022/04/04 01:27:23;;;;;;;7.15;6.55;;;;;;;;;;513994;28;823;-81
2022/04/04 01:27:39;;;;;;;7.17;6.50;;;;;;;;;;512899;28;1247;-81
2022/04/04 01:27:57;;;;;;;7.63;6.82;;;;;;;;;;512094;29;1233;-81
2022/04/04 01:28:12;;;;;;;7.18;6.47;;;;;;;;;;511911;29;1214;-81
2022/04/04 01:28:27;;;;;;;7.07;6.40;;;;;;;;;;511623;28;1237;-81
2022/04/04 01:28:43;;;;;;;7.30;6.70;;;;;;;;;;512842;28;926;-81
2022/04/04 01:28:58;;;;;;;7.10;6.40;;;;;;;;;;513966;28;854;-80
2022/04/04 01:29:14;;;;;;;7.23;6.50;;;;;;;;;;511985;29;1182;-81
2022/04/04 01:29:30;;;;;;;7.25;6.55;;;;;;;;;;513306;28;949;-81
2022/04/04 01:29:45;;;;;;;7.40;6.70;;;;;;;;;;513865;28;1295;-81
2022/04/04 01:30:01;;;;;;;7.60;6.90;;;;;;;;;;516625;28;1225;-80
2022/04/04 01:30:16;;;;;;;7.33;6.63;;;;;;;;;;517894;28;1241;-80
2022/04/04 01:30:32;;;;;;;7.18;6.47;;;;;;;;;;515970;28;1173;-81
2022/04/04 01:30:51;;;;;;;7.20;6.60;;;;;;;;;;516067;28;966;-81
2022/04/04 01:31:07;;;;;;;7.00;6.32;;;;;;;;;;516057;28;944;-81
2022/04/04 01:31:22;;;;;;;6.72;6.10;;;;;;;;;;516022;28;1347;-81
2022/04/04 01:31:38;;;;;;;7.13;6.43;;;;;;;;;;515926;28;1169;-81
2022/04/04 01:31:54;;;;;;;7.28;6.53;;;;;;;;;;516051;28;811;-81
2022/04/04 01:32:11;;;;;;;7.28;6.30;;;;;;;;;;513530;28;1476;-81
2022/04/04 01:32:27;;;;;;;7.10;6.40;;;;;;;;;;512082;29;926;-81
2022/04/04 01:32:42;;;;;;;7.78;6.63;;;;;;;;;;512098;29;878;-81
2022/04/04 01:32:57;;;;;;;7.30;6.57;;;;;;;;;;510070;29;1281;-81
2022/04/04 01:33:13;;;;;;;7.20;6.50;;;;;;;;;;510729;29;1365;-81
2022/04/04 01:33:28;;;;;;;7.07;6.40;;;;;;;;;;512549;28;1041;-81
2022/04/04 01:33:43;;;;;;;7.10;6.40;;;;;;;;;;514118;28;886;-81
2022/04/04 01:33:59;;;;;;;7.40;6.70;;;;;;;;;;512258;28;1237;-80
2022/04/04 01:34:14;;;;;;;7.23;6.53;;;;;;;;;;511817;29;1497;-81
2022/04/04 01:34:30;;;;;;;7.10;6.40;;;;;;;;;;512471;28;803;-81
2022/04/04 01:34:45;;;;;;;7.77;6.57;;;;;;;;;;513826;28;886;-80
2022/04/04 01:35:01;;;;;;;7.20;6.35;;;;;;;;;;513573;28;1382;-80
2022/04/04 01:35:17;;;;;;;6.80;6.20;;;;;;;;;;511844;29;811;-81
2022/04/04 01:35:33;;;;;;;7.03;6.40;;;;;;;;;;511820;29;890;-80
2022/04/04 01:35:48;;;;;;;7.63;6.70;;;;;;;;;;512411;28;827;-80
2022/04/04 01:36:04;;;;;;;7.95;7.05;;;;;;;;;;512457;28;1277;-81
2022/04/04 01:36:19;;;;;;;7.67;6.87;;;;;;;;;;514070;28;1049;-80
2022/04/04 01:36:34;;;;;;;7.47;6.63;;;;;;;;;;514059;28;815;-81
2022/04/04 01:36:51;;;;;;;7.60;6.80;;;;;;;;;;514411;28;806;-81
2022/04/04 01:37:07;;;;;;;7.43;6.72;;;;;;;;;;513984;28;1506;-81
2022/04/04 01:37:22;;;;;;;7.00;6.35;;;;;;;;;;514005;28;823;-81
2022/04/04 01:37:38;;;;;;;7.27;6.57;;;;;;;;;;514059;28;1053;-81
2022/04/04 01:37:53;;;;;;;7.47;6.63;;;;;;;;;;514578;28;945;-81
2022/04/04 01:38:09;;;;;;;7.88;6.50;;;;;;;;;;515962;28;984;-81
2022/04/04 01:38:25;;;;;;;7.17;6.47;;;;;;;;;;513864;28;1260;-81
2022/04/04 01:38:40;;;;;;;7.07;6.45;;;;;;;;;;513849;28;1040;-81
2022/04/04 01:38:55;;;;;;;7.30;6.60;;;;;;;;;;514413;28;1237;-81
2022/04/04 01:39:11;;;;;;;7.57;6.87;;;;;;;;;;514043;28;1170;-81